sensor_id;sensor_type;location;lat;lon;timestamp;pressure;altitude;pressure_sealevel;temperature;humidity
44001;BME280;29660;42.892;24.710;2023-04-16T00:02:28;96219.19;;;5.72;100.00
44001;BME280;29660;42.892;24.710;2023-04-16T00:07:51;96465.69;;;7.37;100.00
44001;BME280;29660;42.892;24.710;2023-04-16T00:13:13;96216.22;;;5.83;100.00
44001;BME280;29660;42.892;24.710;2023-04-16T00:18:35;96529.81;;;7.74;100.00
44001;BME280;29660;42.892;24.710;2023-04-16T00:23:57;96540.97;;;7.76;100.00
44001;BME280;29660;42.892;24.710;2023-04-16T00:29:20;96508.78;;;7.53;100.00
44001;BME280;29660;42.892;24.710;2023-04-16T00:34:42;96513.97;;;7.69;100.00
44001;BME280;29660;42.892;24.710;2023-04-16T00:40:05;96499.47;;;7.56;100.00
44001;BME280;29660;42.892;24.710;2023-04-16T00:45:27;96269.13;;;6.28;100.00
44001;BME280;29660;42.892;24.710;2023-04-16T00:50:50;96508.97;;;7.91;100.00
44001;BME280;29660;42.892;24.710;2023-04-16T00:56:12;96447.19;;;7.56;100.00
44001;BME280;29660;42.892;24.710;2023-04-16T01:01:34;96203.63;;;6.09;100.00
44001;BME280;29660;42.892;24.710;2023-04-16T01:06:57;96193.81;;;6.10;100.00
44001;BME280;29660;42.892;24.710;2023-04-16T01:12:19;96149.31;;;5.78;100.00
44001;BME280;29660;42.892;24.710;2023-04-16T01:17:44;96204.31;;;6.20;100.00
44001;BME280;29660;42.892;24.710;2023-04-16T01:23:07;96217.41;;;6.35;100.00
44001;BME280;29660;42.892;24.710;2023-04-16T01:28:29;96221.88;;;6.40;100.00
44001;BME280;29660;42.892;24.710;2023-04-16T01:33:51;96448.97;;;7.90;100.00
44001;BME280;29660;42.892;24.710;2023-04-16T01:39:13;96471.50;;;8.17;100.00
44001;BME280;29660;42.892;24.710;2023-04-16T01:44:37;96242.06;;;6.65;100.00
44001;BME280;29660;42.892;24.710;2023-04-16T01:49:59;96336.59;;;7.28;100.00
44001;BME280;29660;42.892;24.710;2023-04-16T01:55:23;96462.06;;;8.05;100.00
44001;BME280;29660;42.892;24.710;2023-04-16T02:00:45;96188.59;;;6.34;100.00
44001;BME280;29660;42.892;24.710;2023-04-16T02:06:07;96198.50;;;6.47;100.00
44001;BME280;29660;42.892;24.710;2023-04-16T02:11:30;96243.63;;;6.66;100.00
44001;BME280;29660;42.892;24.710;2023-04-16T02:16:52;96356.75;;;7.29;100.00
44001;BME280;29660;42.892;24.710;2023-04-16T02:22:28;96155.44;;;6.07;100.00
44001;BME280;29660;42.892;24.710;2023-04-16T02:27:51;96389.28;;;7.63;100.00
44001;BME280;29660;42.892;24.710;2023-04-16T02:33:21;96390.28;;;7.68;100.00
44001;BME280;29660;42.892;24.710;2023-04-16T02:38:52;96147.44;;;6.18;100.00
44001;BME280;29660;42.892;24.710;2023-04-16T02:44:14;96296.03;;;7.27;100.00
44001;BME280;29660;42.892;24.710;2023-04-16T02:49:36;96205.75;;;6.66;100.00
44001;BME280;29660;42.892;24.710;2023-04-16T02:54:59;96201.56;;;6.59;100.00
44001;BME280;29660;42.892;24.710;2023-04-16T03:00:21;96440.41;;;7.98;100.00
44001;BME280;29660;42.892;24.710;2023-04-16T03:05:43;96443.88;;;8.18;100.00
44001;BME280;29660;42.892;24.710;2023-04-16T03:11:05;96093.09;;;5.91;100.00
44001;BME280;29660;42.892;24.710;2023-04-16T03:16:28;96398.50;;;7.71;100.00
44001;BME280;29660;42.892;24.710;2023-04-16T03:21:50;96465.53;;;8.06;100.00
44001;BME280;29660;42.892;24.710;2023-04-16T03:27:12;96472.09;;;8.14;100.00
44001;BME280;29660;42.892;24.710;2023-04-16T03:32:34;96446.66;;;7.83;100.00
44001;BME280;29660;42.892;24.710;2023-04-16T03:37:58;96220.03;;;6.41;100.00
44001;BME280;29660;42.892;24.710;2023-04-16T03:43:21;96390.16;;;7.54;100.00
44001;BME280;29660;42.892;24.710;2023-04-16T03:48:43;96477.03;;;7.96;100.00
44001;BME280;29660;42.892;24.710;2023-04-16T03:54:06;96389.50;;;7.43;100.00
44001;BME280;29660;42.892;24.710;2023-04-16T03:59:28;96234.25;;;6.50;100.00
44001;BME280;29660;42.892;24.710;2023-04-16T04:04:50;96327.72;;;7.13;100.00
44001;BME280;29660;42.892;24.710;2023-04-16T04:10:13;96312.50;;;7.00;100.00
44001;BME280;29660;42.892;24.710;2023-04-16T04:15:36;96451.81;;;7.99;100.00
44001;BME280;29660;42.892;24.710;2023-04-16T04:20:59;96186.47;;;6.31;100.00
44001;BME280;29660;42.892;24.710;2023-04-16T04:26:25;96197.50;;;6.43;100.00
44001;BME280;29660;42.892;24.710;2023-04-16T04:31:47;96498.66;;;8.14;100.00
44001;BME280;29660;42.892;24.710;2023-04-16T04:37:10;96359.47;;;7.48;100.00
44001;BME280;29660;42.892;24.710;2023-04-16T04:42:32;96197.13;;;6.55;100.00
44001;BME280;29660;42.892;24.710;2023-04-16T04:47:55;96188.16;;;6.51;100.00
44001;BME280;29660;42.892;24.710;2023-04-16T04:53:17;96201.47;;;6.70;100.00
44001;BME280;29660;42.892;24.710;2023-04-16T04:58:40;96234.44;;;7.11;100.00
44001;BME280;29660;42.892;24.710;2023-04-16T05:04:02;96487.97;;;8.99;100.00
44001;BME280;29660;42.892;24.710;2023-04-16T05:09:24;96238.94;;;7.73;100.00
44001;BME280;29660;42.892;24.710;2023-04-16T05:14:47;96457.53;;;9.43;100.00
44001;BME280;29660;42.892;24.710;2023-04-16T05:20:10;96205.91;;;8.17;100.00
44001;BME280;29660;42.892;24.710;2023-04-16T05:25:32;96460.84;;;10.09;100.00
44001;BME280;29660;42.892;24.710;2023-04-16T05:30:54;96243.69;;;8.79;100.00
44001;BME280;29660;42.892;24.710;2023-04-16T05:36:16;96196.03;;;8.69;100.00
44001;BME280;29660;42.892;24.710;2023-04-16T05:41:38;96414.63;;;10.41;99.26
44001;BME280;29660;42.892;24.710;2023-04-16T05:47:00;96459.59;;;11.06;97.63
44001;BME280;29660;42.892;24.710;2023-04-16T05:52:22;96221.94;;;9.82;97.16
44001;BME280;29660;42.892;24.710;2023-04-16T05:57:44;96033.66;;;8.79;93.69
44001;BME280;29660;42.892;24.710;2023-04-16T06:03:07;95946.81;;;8.38;92.88
44001;BME280;29660;42.892;24.710;2023-04-16T06:08:29;96411.53;;;11.51;91.52
44001;BME280;29660;42.892;24.710;2023-04-16T06:13:51;96445.72;;;11.72;89.93
44001;BME280;29660;42.892;24.710;2023-04-16T06:19:13;96379.41;;;11.43;89.33
44001;BME280;29660;42.892;24.710;2023-04-16T06:24:35;96177.59;;;10.22;85.57
44001;BME280;29660;42.892;24.710;2023-04-16T06:29:57;96386.09;;;11.63;88.25
44001;BME280;29660;42.892;24.710;2023-04-16T06:35:19;96205.31;;;10.66;86.59
44001;BME280;29660;42.892;24.710;2023-04-16T06:40:42;96228.06;;;11.03;84.26
44001;BME280;29660;42.892;24.710;2023-04-16T06:46:04;96181.28;;;10.97;82.90
44001;BME280;29660;42.892;24.710;2023-04-16T06:51:26;96168.75;;;11.15;82.63
44001;BME280;29660;42.892;24.710;2023-04-16T06:56:48;96400.06;;;12.91;83.13
44001;BME280;29660;42.892;24.710;2023-04-16T07:02:11;96185.97;;;11.49;78.80
44001;BME280;29660;42.892;24.710;2023-04-16T07:07:33;96217.47;;;11.95;79.09
44001;BME280;29660;42.892;24.710;2023-04-16T07:12:55;96371.06;;;13.11;76.81
44001;BME280;29660;42.892;24.710;2023-04-16T07:18:17;96160.19;;;11.62;74.36
44001;BME280;29660;42.892;24.710;2023-04-16T07:23:41;96451.53;;;13.49;75.90
44001;BME280;29660;42.892;24.710;2023-04-16T07:29:03;96445.81;;;13.68;75.83
44001;BME280;29660;42.892;24.710;2023-04-16T07:34:25;96405.66;;;13.50;73.07
44001;BME280;29660;42.892;24.710;2023-04-16T07:39:47;96466.06;;;13.86;74.11
44001;BME280;29660;42.892;24.710;2023-04-16T07:45:09;96376.19;;;13.50;72.50
44001;BME280;29660;42.892;24.710;2023-04-16T07:50:32;96253.59;;;13.09;72.95
44001;BME280;29660;42.892;24.710;2023-04-16T07:55:54;96416.63;;;14.34;70.73
44001;BME280;29660;42.892;24.710;2023-04-16T08:01:16;96422.34;;;14.83;66.29
44001;BME280;29660;42.892;24.710;2023-04-16T08:06:38;96461.88;;;15.16;65.21
44001;BME280;29660;42.892;24.710;2023-04-16T08:12:01;96205.94;;;13.83;66.48
44001;BME280;29660;42.892;24.710;2023-04-16T08:17:23;96440.94;;;15.76;61.71
44001;BME280;29660;42.892;24.710;2023-04-16T08:22:47;96452.28;;;16.06;62.66
44001;BME280;29660;42.892;24.710;2023-04-16T08:28:09;96241.88;;;15.23;59.57
44001;BME280;29660;42.892;24.710;2023-04-16T08:33:31;95988.75;;;13.79;53.26
44001;BME280;29660;42.892;24.710;2023-04-16T08:38:53;96178.06;;;15.44;51.71
44001;BME280;29660;42.892;24.710;2023-04-16T08:44:25;96437.09;;;17.27;50.60
44001;BME280;29660;42.892;24.710;2023-04-16T08:49:48;96415.47;;;17.39;46.90
44001;BME280;29660;42.892;24.710;2023-04-16T08:55:35;96350.84;;;17.27;45.01
44001;BME280;29660;42.892;24.710;2023-04-16T09:01:02;96428.53;;;17.81;45.45
44001;BME280;29660;42.892;24.710;2023-04-16T09:06:24;96240.44;;;16.99;46.74
44001;BME280;29660;42.892;24.710;2023-04-16T09:11:54;96135.28;;;16.64;43.90
44001;BME280;29660;42.892;24.710;2023-04-16T09:17:17;96149.28;;;16.85;43.82
44001;BME280;29660;42.892;24.710;2023-04-16T09:22:39;96398.91;;;18.68;44.08
44001;BME280;29660;42.892;24.710;2023-04-16T09:28:02;96338.66;;;18.28;43.28
44001;BME280;29660;42.892;24.710;2023-04-16T09:33:24;96387.56;;;18.62;43.65
44001;BME280;29660;42.892;24.710;2023-04-16T09:38:47;96388.78;;;18.80;43.82
44001;BME280;29660;42.892;24.710;2023-04-16T09:44:09;96165.16;;;17.38;42.31
44001;BME280;29660;42.892;24.710;2023-04-16T09:49:33;96124.88;;;17.10;42.98
44001;BME280;29660;42.892;24.710;2023-04-16T09:54:56;96261.13;;;18.09;43.08
44001;BME280;29660;42.892;24.710;2023-04-16T10:00:19;96283.47;;;18.45;41.82
44001;BME280;29660;42.892;24.710;2023-04-16T10:05:41;96109.50;;;17.46;41.71
44001;BME280;29660;42.892;24.710;2023-04-16T10:11:03;96114.22;;;17.87;41.02
44001;BME280;29660;42.892;24.710;2023-04-16T10:16:28;96314.19;;;19.37;40.44
44001;BME280;29660;42.892;24.710;2023-04-16T10:21:50;96328.41;;;19.80;39.95
44001;BME280;29660;42.892;24.710;2023-04-16T10:27:13;96035.72;;;17.93;39.42
44001;BME280;29660;42.892;24.710;2023-04-16T10:32:35;96046.19;;;18.17;40.08
44001;BME280;29660;42.892;24.710;2023-04-16T10:38:25;96242.28;;;19.59;39.24
44001;BME280;29660;42.892;24.710;2023-04-16T10:43:49;96088.03;;;18.30;38.05
44001;BME280;29660;42.892;24.710;2023-04-16T10:49:22;96171.94;;;19.06;38.55
44001;BME280;29660;42.892;24.710;2023-04-16T10:54:46;96298.16;;;20.24;40.22
44001;BME280;29660;42.892;24.710;2023-04-16T11:00:31;96339.06;;;20.76;38.06
44001;BME280;29660;42.892;24.710;2023-04-16T11:06:10;96083.19;;;19.65;38.47
44001;BME280;29660;42.892;24.710;2023-04-16T11:11:37;96111.03;;;20.33;38.28
44001;BME280;29660;42.892;24.710;2023-04-16T11:17:02;96249.94;;;21.49;36.89
44001;BME280;29660;42.892;24.710;2023-04-16T11:22:24;96042.06;;;20.23;36.01
44001;BME280;29660;42.892;24.710;2023-04-16T11:27:49;96260.72;;;21.42;36.08
44001;BME280;29660;42.892;24.710;2023-04-16T11:33:12;96174.91;;;20.71;36.20
44001;BME280;29660;42.892;24.710;2023-04-16T11:38:35;96307.66;;;21.42;36.19
44001;BME280;29660;42.892;24.710;2023-04-16T11:43:57;96340.41;;;21.26;37.59
44001;BME280;29660;42.892;24.710;2023-04-16T11:49:29;96285.56;;;20.69;39.33
44001;BME280;29660;42.892;24.710;2023-04-16T11:54:51;96304.25;;;20.48;40.27
44001;BME280;29660;42.892;24.710;2023-04-16T12:00:14;96305.84;;;20.22;41.84
44001;BME280;29660;42.892;24.710;2023-04-16T12:05:38;96359.25;;;19.99;46.00
44001;BME280;29660;42.892;24.710;2023-04-16T12:11:00;96303.41;;;19.18;48.38
44001;BME280;29660;42.892;24.710;2023-04-16T12:16:24;96331.00;;;18.50;54.31
44001;BME280;29660;42.892;24.710;2023-04-16T12:21:48;96356.78;;;18.28;59.96
44001;BME280;29660;42.892;24.710;2023-04-16T12:27:11;96070.03;;;16.07;62.58
44001;BME280;29660;42.892;24.710;2023-04-16T12:32:33;96070.16;;;15.99;59.63
44001;BME280;29660;42.892;24.710;2023-04-16T12:37:56;96365.94;;;17.76;61.29
44001;BME280;29660;42.892;24.710;2023-04-16T12:43:19;96089.69;;;15.67;68.99
44001;BME280;29660;42.892;24.710;2023-04-16T12:48:42;96332.41;;;17.13;69.45
44001;BME280;29660;42.892;24.710;2023-04-16T12:54:05;96278.25;;;16.47;71.90
44001;BME280;29660;42.892;24.710;2023-04-16T12:59:30;96353.47;;;16.55;76.99
44001;BME280;29660;42.892;24.710;2023-04-16T13:04:53;96304.31;;;16.30;77.94
44001;BME280;29660;42.892;24.710;2023-04-16T13:10:15;96342.19;;;16.37;77.74
44001;BME280;29660;42.892;24.710;2023-04-16T13:15:37;96352.41;;;16.72;73.99
44001;BME280;29660;42.892;24.710;2023-04-16T13:20:59;96034.41;;;14.40;72.67
44001;BME280;29660;42.892;24.710;2023-04-16T13:26:22;96050.75;;;14.84;73.02
44001;BME280;29660;42.892;24.710;2023-04-16T13:31:44;96041.78;;;15.05;70.99
44001;BME280;29660;42.892;24.710;2023-04-16T13:37:06;96219.53;;;16.36;67.68
44001;BME280;29660;42.892;24.710;2023-04-16T13:42:28;96297.91;;;17.51;65.03
44001;BME280;29660;42.892;24.710;2023-04-16T13:47:50;96272.34;;;17.92;60.24
44001;BME280;29660;42.892;24.710;2023-04-16T13:53:12;96062.22;;;16.50;58.16
44001;BME280;29660;42.892;24.710;2023-04-16T13:58:34;96200.44;;;17.17;57.28
44001;BME280;29660;42.892;24.710;2023-04-16T14:03:56;96260.84;;;17.00;56.84
44001;BME280;29660;42.892;24.710;2023-04-16T14:09:20;96276.16;;;16.68;64.48
44001;BME280;29660;42.892;24.710;2023-04-16T14:14:42;96049.88;;;14.80;65.84
44001;BME280;29660;42.892;24.710;2023-04-16T14:20:04;96027.81;;;14.38;65.97
44001;BME280;29660;42.892;24.710;2023-04-16T14:25:27;96092.94;;;14.71;66.89
44001;BME280;29660;42.892;24.710;2023-04-16T14:30:49;96245.56;;;15.31;69.73
44001;BME280;29660;42.892;24.710;2023-04-16T14:36:11;96294.28;;;15.54;68.52
44001;BME280;29660;42.892;24.710;2023-04-16T14:41:34;96364.44;;;16.10;68.33
44001;BME280;29660;42.892;24.710;2023-04-16T14:46:56;96368.47;;;16.16;67.52
44001;BME280;29660;42.892;24.710;2023-04-16T14:52:18;96112.03;;;14.58;64.51
44001;BME280;29660;42.892;24.710;2023-04-16T14:57:40;96308.72;;;15.98;63.17
44001;BME280;29660;42.892;24.710;2023-04-16T15:03:03;96087.03;;;14.66;61.48
44001;BME280;29660;42.892;24.710;2023-04-16T15:08:25;96349.69;;;16.44;61.54
44001;BME280;29660;42.892;24.710;2023-04-16T15:13:48;96339.88;;;16.64;62.23
44001;BME280;29660;42.892;24.710;2023-04-16T15:19:10;96302.41;;;16.18;65.66
44001;BME280;29660;42.892;24.710;2023-04-16T15:24:32;96347.78;;;16.44;66.23
44001;BME280;29660;42.892;24.710;2023-04-16T15:29:54;96283.72;;;16.10;66.30
44001;BME280;29660;42.892;24.710;2023-04-16T15:35:17;96327.66;;;16.54;65.48
44001;BME280;29660;42.892;24.710;2023-04-16T15:40:39;96107.91;;;14.97;64.01
44001;BME280;29660;42.892;24.710;2023-04-16T15:46:02;96326.97;;;16.29;63.73
44001;BME280;29660;42.892;24.710;2023-04-16T15:51:23;96326.75;;;16.10;64.53
44001;BME280;29660;42.892;24.710;2023-04-16T15:56:47;96144.59;;;14.68;66.83
44001;BME280;29660;42.892;24.710;2023-04-16T16:02:09;96264.50;;;15.34;68.25
44001;BME280;29660;42.892;24.710;2023-04-16T16:07:32;96082.59;;;13.91;71.31
44001;BME280;29660;42.892;24.710;2023-04-16T16:12:54;96076.69;;;13.65;76.20
44001;BME280;29660;42.892;24.710;2023-04-16T16:18:18;96309.59;;;14.83;78.95
44001;BME280;29660;42.892;24.710;2023-04-16T16:23:40;96331.31;;;14.90;78.39
44001;BME280;29660;42.892;24.710;2023-04-16T16:29:02;96090.06;;;13.23;79.00
44001;BME280;29660;42.892;24.710;2023-04-16T16:34:24;96115.16;;;13.39;78.44
44001;BME280;29660;42.892;24.710;2023-04-16T16:39:46;95863.13;;;11.65;77.38
44001;BME280;29660;42.892;24.710;2023-04-16T16:45:09;96398.75;;;14.89;77.15
44001;BME280;29660;42.892;24.710;2023-04-16T16:50:31;96362.41;;;14.58;77.90
44001;BME280;29660;42.892;24.710;2023-04-16T16:55:54;96303.56;;;14.03;79.09
44001;BME280;29660;42.892;24.710;2023-04-16T17:01:16;96183.66;;;13.11;85.79
44001;BME280;29660;42.892;24.710;2023-04-16T17:06:38;96387.03;;;14.22;83.94
44001;BME280;29660;42.892;24.710;2023-04-16T17:12:01;96442.13;;;14.19;91.83
44001;BME280;29660;42.892;24.710;2023-04-16T17:17:23;96133.66;;;12.00;87.13
44001;BME280;29660;42.892;24.710;2023-04-16T17:22:45;96428.63;;;13.69;95.18
44001;BME280;29660;42.892;24.710;2023-04-16T17:28:08;96355.97;;;12.97;100.00
44001;BME280;29660;42.892;24.710;2023-04-16T17:33:30;96406.66;;;13.02;100.00
44001;BME280;29660;42.892;24.710;2023-04-16T17:38:52;96116.63;;;11.00;100.00
44001;BME280;29660;42.892;24.710;2023-04-16T17:44:14;96436.25;;;12.80;100.00
44001;BME280;29660;42.892;24.710;2023-04-16T17:49:36;96020.25;;;9.96;100.00
44001;BME280;29660;42.892;24.710;2023-04-16T17:54:58;96326.50;;;11.85;100.00
44001;BME280;29660;42.892;24.710;2023-04-16T18:00:22;96236.59;;;11.23;100.00
44001;BME280;29660;42.892;24.710;2023-04-16T18:05:44;96432.91;;;12.48;100.00
44001;BME280;29660;42.892;24.710;2023-04-16T18:11:07;96438.72;;;12.33;100.00
44001;BME280;29660;42.892;24.710;2023-04-16T18:16:29;96233.31;;;10.86;100.00
44001;BME280;29660;42.892;24.710;2023-04-16T18:21:51;96193.78;;;10.57;100.00
44001;BME280;29660;42.892;24.710;2023-04-16T18:27:13;96212.63;;;10.61;100.00
44001;BME280;29660;42.892;24.710;2023-04-16T18:32:35;96255.97;;;10.66;100.00
44001;BME280;29660;42.892;24.710;2023-04-16T18:37:58;96507.56;;;12.19;100.00
44001;BME280;29660;42.892;24.710;2023-04-16T18:43:20;96501.88;;;12.12;100.00
44001;BME280;29660;42.892;24.710;2023-04-16T18:48:43;96205.88;;;10.32;100.00
44001;BME280;29660;42.892;24.710;2023-04-16T18:54:08;96423.03;;;11.61;100.00
44001;BME280;29660;42.892;24.710;2023-04-16T18:59:30;96410.50;;;11.39;100.00
44001;BME280;29660;42.892;24.710;2023-04-16T19:04:52;96234.75;;;10.16;100.00
44001;BME280;29660;42.892;24.710;2023-04-16T19:10:14;96280.81;;;10.30;100.00
44001;BME280;29660;42.892;24.710;2023-04-16T19:15:36;96017.09;;;8.46;100.00
44001;BME280;29660;42.892;24.710;2023-04-16T19:20:59;96217.03;;;9.75;100.00
44001;BME280;29660;42.892;24.710;2023-04-16T19:26:21;96375.06;;;10.71;100.00
44001;BME280;29660;42.892;24.710;2023-04-16T19:31:43;96466.50;;;11.30;100.00
44001;BME280;29660;42.892;24.710;2023-04-16T19:37:07;96485.19;;;11.30;100.00
44001;BME280;29660;42.892;24.710;2023-04-16T19:42:30;96262.38;;;9.84;100.00
44001;BME280;29660;42.892;24.710;2023-04-16T19:47:52;96183.50;;;9.10;100.00
44001;BME280;29660;42.892;24.710;2023-04-16T19:53:14;96174.34;;;9.03;100.00
44001;BME280;29660;42.892;24.710;2023-04-16T19:58:38;96227.34;;;9.41;100.00
44001;BME280;29660;42.892;24.710;2023-04-16T20:04:00;96153.19;;;8.84;100.00
44001;BME280;29660;42.892;24.710;2023-04-16T20:09:22;96159.00;;;8.58;100.00
44001;BME280;29660;42.892;24.710;2023-04-16T20:14:44;96457.50;;;10.31;100.00
44001;BME280;29660;42.892;24.710;2023-04-16T20:20:07;96180.97;;;8.31;100.00
44001;BME280;29660;42.892;24.710;2023-04-16T20:25:31;96214.97;;;8.48;100.00
44001;BME280;29660;42.892;24.710;2023-04-16T20:30:53;96379.31;;;9.39;100.00
44001;BME280;29660;42.892;24.710;2023-04-16T20:36:15;96215.94;;;8.39;100.00
44001;BME280;29660;42.892;24.710;2023-04-16T20:41:37;96457.56;;;9.84;100.00
44001;BME280;29660;42.892;24.710;2023-04-16T20:47:08;96299.59;;;8.74;100.00
44001;BME280;29660;42.892;24.710;2023-04-16T20:52:31;96160.31;;;7.77;100.00
44001;BME280;29660;42.892;24.710;2023-04-16T20:57:53;96398.63;;;9.31;100.00
44001;BME280;29660;42.892;24.710;2023-04-16T21:03:15;96460.09;;;9.48;100.00
44001;BME280;29660;42.892;24.710;2023-04-16T21:08:37;96172.97;;;7.47;100.00
44001;BME280;29660;42.892;24.710;2023-04-16T21:14:00;96461.09;;;9.20;100.00
44001;BME280;29660;42.892;24.710;2023-04-16T21:19:23;96176.28;;;7.39;100.00
44001;BME280;29660;42.892;24.710;2023-04-16T21:24:45;96450.75;;;8.99;100.00
44001;BME280;29660;42.892;24.710;2023-04-16T21:30:07;96195.06;;;7.19;100.00
44001;BME280;29660;42.892;24.710;2023-04-16T21:35:31;96477.66;;;8.98;100.00
44001;BME280;29660;42.892;24.710;2023-04-16T21:40:53;96156.94;;;6.96;100.00
44001;BME280;29660;42.892;24.710;2023-04-16T21:46:16;96189.13;;;7.27;100.00
44001;BME280;29660;42.892;24.710;2023-04-16T21:51:38;96236.22;;;7.59;100.00
44001;BME280;29660;42.892;24.710;2023-04-16T21:57:01;96458.03;;;8.94;100.00
44001;BME280;29660;42.892;24.710;2023-04-16T22:02:23;96454.13;;;9.05;100.00
44001;BME280;29660;42.892;24.710;2023-04-16T22:07:46;96399.28;;;8.57;100.00
44001;BME280;29660;42.892;24.710;2023-04-16T22:13:08;96123.63;;;6.66;100.00
44001;BME280;29660;42.892;24.710;2023-04-16T22:18:33;96168.75;;;6.79;100.00
44001;BME280;29660;42.892;24.710;2023-04-16T22:23:55;96468.41;;;8.76;100.00
44001;BME280;29660;42.892;24.710;2023-04-16T22:29:18;96476.19;;;8.68;100.00
44001;BME280;29660;42.892;24.710;2023-04-16T22:34:40;96183.31;;;6.82;100.00
44001;BME280;29660;42.892;24.710;2023-04-16T22:40:03;96117.16;;;6.29;100.00
44001;BME280;29660;42.892;24.710;2023-04-16T22:45:32;96449.59;;;8.49;100.00
44001;BME280;29660;42.892;24.710;2023-04-16T22:50:56;96194.44;;;6.84;100.00
44001;BME280;29660;42.892;24.710;2023-04-16T22:56:18;96384.72;;;8.12;100.00
44001;BME280;29660;42.892;24.710;2023-04-16T23:01:40;96462.00;;;8.77;100.00
44001;BME280;29660;42.892;24.710;2023-04-16T23:07:03;96463.25;;;8.80;100.00
44001;BME280;29660;42.892;24.710;2023-04-16T23:12:25;96154.31;;;6.91;100.00
44001;BME280;29660;42.892;24.710;2023-04-16T23:17:47;96392.78;;;8.26;100.00
44001;BME280;29660;42.892;24.710;2023-04-16T23:23:10;96159.41;;;6.87;100.00
44001;BME280;29660;42.892;24.710;2023-04-16T23:28:32;96445.91;;;8.69;100.00
44001;BME280;29660;42.892;24.710;2023-04-16T23:33:54;96062.09;;;6.26;100.00
44001;BME280;29660;42.892;24.710;2023-04-16T23:39:34;96135.22;;;6.70;100.00
44001;BME280;29660;42.892;24.710;2023-04-16T23:44:57;96353.50;;;8.23;100.00
44001;BME280;29660;42.892;24.710;2023-04-16T23:50:19;96276.53;;;7.61;100.00
44001;BME280;29660;42.892;24.710;2023-04-16T23:55:41;96432.03;;;8.53;100.00
